createdAt,value
2017-01-10T00:00:12.611Z,4.26
2017-01-10T00:01:12.362Z,4.21
2017-01-10T00:02:12.230Z,4.18
2017-01-10T00:03:12.191Z,4.16
2017-01-10T00:04:12.767Z,4.14
2017-01-10T00:05:12.592Z,4.07
2017-01-10T00:06:12.586Z,4.17
2017-01-10T00:07:12.510Z,4.17
2017-01-10T00:08:12.911Z,4.14
2017-01-10T00:09:13.247Z,4.16
2017-01-10T00:10:12.521Z,4.11
2017-01-10T00:11:12.483Z,4.11
2017-01-10T00:12:12.416Z,4.14
2017-01-10T00:13:12.620Z,4.18
2017-01-10T00:14:12.587Z,4.14
2017-01-10T00:15:12.696Z,4.14
2017-01-10T00:16:12.447Z,4.17
2017-01-10T00:17:12.406Z,4.14
2017-01-10T00:18:12.691Z,4.14
2017-01-10T00:19:12.509Z,4.13
2017-01-10T00:20:12.447Z,4.11
2017-01-10T00:21:13.418Z,4.13
2017-01-10T00:22:12.616Z,4.13
2017-01-10T00:23:12.690Z,4.11
2017-01-10T00:24:12.605Z,4.11
2017-01-10T00:25:12.588Z,4.14
2017-01-10T00:26:12.388Z,4.14
2017-01-10T00:27:12.648Z,4.14
2017-01-10T00:28:12.606Z,4.14
2017-01-10T00:29:12.368Z,4.07
2017-01-10T00:30:12.640Z,4.08
2017-01-10T00:31:12.273Z,4.11
2017-01-10T00:32:12.374Z,4.17
2017-01-10T00:33:12.343Z,4.17
2017-01-10T00:34:12.599Z,4.1
2017-01-10T00:35:12.391Z,4.13
2017-01-10T00:36:12.594Z,4.17
2017-01-10T00:37:12.390Z,4.17
2017-01-10T00:38:12.336Z,4.13
2017-01-10T00:39:12.266Z,4.13
2017-01-10T00:40:12.656Z,4.14
2017-01-10T00:41:12.646Z,4.14
2017-01-10T00:42:12.199Z,4.14
2017-01-10T00:43:12.361Z,4.17
2017-01-10T00:44:12.320Z,4.18
2017-01-10T00:45:12.323Z,4.14
2017-01-10T00:46:12.311Z,4.14
2017-01-10T00:47:12.157Z,4.17
2017-01-10T00:48:12.392Z,4.16
2017-01-10T00:49:12.303Z,4.17
2017-01-10T00:50:12.811Z,4.11
2017-01-10T00:51:12.582Z,4.13
2017-01-10T00:52:12.401Z,4.16
2017-01-10T00:53:12.293Z,4.16
2017-01-10T00:54:12.557Z,4.11
2017-01-10T00:55:12.558Z,4.1
2017-01-10T00:56:12.439Z,4.13
2017-01-10T00:57:12.854Z,4.1
2017-01-10T00:58:12.684Z,4.13
2017-01-10T00:59:12.270Z,4.17
2017-01-10T01:00:12.517Z,4.11
2017-01-10T01:01:12.793Z,4.14
2017-01-10T01:02:12.376Z,4.14
2017-01-10T01:03:12.421Z,4.1
2017-01-10T01:04:12.588Z,4.16
2017-01-10T01:05:12.315Z,4.07
2017-01-10T01:06:12.681Z,4.07
2017-01-10T01:07:12.744Z,4.07
2017-01-10T01:08:12.805Z,4.07
2017-01-10T01:09:13.695Z,4.04
2017-01-10T01:10:13.127Z,4.04
2017-01-10T01:11:12.535Z,4.07
2017-01-10T01:12:12.668Z,3.95
2017-01-10T01:13:12.326Z,4
2017-01-10T01:14:12.275Z,4.04
2017-01-10T01:15:12.502Z,4.08
2017-01-10T01:16:12.732Z,4.06
2017-01-10T01:17:12.715Z,4.04
2017-01-10T01:18:12.576Z,4.02
2017-01-10T01:19:12.517Z,4.02
2017-01-10T01:20:12.421Z,3.96
2017-01-10T01:21:12.490Z,4.07
2017-01-10T01:22:12.575Z,4.07
2017-01-10T01:23:12.763Z,3.99
2017-01-10T01:24:13.060Z,4
2017-01-10T01:25:12.452Z,4.02
2017-01-10T01:26:12.508Z,4.1
2017-01-10T01:27:12.532Z,3.99
2017-01-10T01:28:12.738Z,3.98
2017-01-10T01:29:12.743Z,4.1
2017-01-10T01:30:13.384Z,4.08
2017-01-10T01:31:12.566Z,4.07
2017-01-10T01:32:12.459Z,3.98
2017-01-10T01:33:12.779Z,4.08
2017-01-10T01:34:12.566Z,4.07
2017-01-10T01:35:12.709Z,4.06
2017-01-10T01:36:13.624Z,4.06
2017-01-10T01:37:12.399Z,3.9
2017-01-10T01:38:12.573Z,4.06
2017-01-10T01:39:12.377Z,3.98
2017-01-10T01:40:12.521Z,4.1
2017-01-10T01:41:12.434Z,3.98
2017-01-10T01:42:12.552Z,4
2017-01-10T01:43:12.219Z,4.04
2017-01-10T01:44:12.436Z,4
2017-01-10T01:45:12.687Z,3.92
2017-01-10T01:46:12.622Z,4.02
2017-01-10T01:47:12.676Z,3.93
2017-01-10T01:48:12.443Z,3.93
2017-01-10T01:49:12.374Z,4
2017-01-10T01:50:12.531Z,3.93
2017-01-10T01:51:12.399Z,3.96
2017-01-10T01:52:12.437Z,4.08
2017-01-10T01:53:12.182Z,4.04
2017-01-10T01:54:12.403Z,3.95
2017-01-10T01:55:12.489Z,4
2017-01-10T01:56:12.432Z,3.98
2017-01-10T01:57:12.558Z,3.95
2017-01-10T01:58:12.719Z,3.96
2017-01-10T01:59:12.591Z,3.92
2017-01-10T02:00:12.659Z,3.93
2017-01-10T02:01:12.743Z,3.98
2017-01-10T02:02:12.712Z,3.93
2017-01-10T02:03:12.871Z,3.95
2017-01-10T02:04:12.662Z,4.02
2017-01-10T02:05:12.438Z,3.99
2017-01-10T02:06:12.485Z,4.08
2017-01-10T02:07:12.856Z,3.9
2017-01-10T02:08:13.080Z,3.96
2017-01-10T02:09:12.577Z,3.99
2017-01-10T02:10:12.957Z,3.99
2017-01-10T02:11:12.246Z,3.96
2017-01-10T02:12:12.477Z,4
2017-01-10T02:13:12.573Z,3.98
2017-01-10T02:14:12.340Z,3.98
2017-01-10T02:15:12.495Z,3.96
2017-01-10T02:16:12.674Z,4
2017-01-10T02:17:13.341Z,4
2017-01-10T02:18:12.582Z,3.96
2017-01-10T02:19:12.681Z,3.99
2017-01-10T02:20:12.941Z,3.96
2017-01-10T02:21:12.656Z,3.95
2017-01-10T02:22:12.780Z,3.96
2017-01-10T02:23:12.530Z,3.98
2017-01-10T02:24:12.904Z,3.95
2017-01-10T02:25:12.728Z,3.96
2017-01-10T02:26:12.633Z,3.95
2017-01-10T02:27:12.675Z,4
2017-01-10T02:28:12.934Z,3.96
2017-01-10T02:29:12.788Z,4
2017-01-10T02:30:12.386Z,3.96
2017-01-10T02:31:12.470Z,3.96
2017-01-10T02:32:12.683Z,3.95
2017-01-10T02:33:12.478Z,3.95
2017-01-10T02:34:12.585Z,3.95
2017-01-10T02:35:12.762Z,3.93
2017-01-10T02:36:12.542Z,3.95
2017-01-10T02:37:12.566Z,3.95
2017-01-10T02:38:12.404Z,3.96
2017-01-10T02:39:12.332Z,3.92
2017-01-10T02:40:12.227Z,3.99
2017-01-10T02:41:12.474Z,3.98
2017-01-10T02:42:12.630Z,3.99
2017-01-10T02:43:12.443Z,3.93
2017-01-10T02:44:12.539Z,3.95
2017-01-10T02:45:12.537Z,3.95
2017-01-10T02:46:12.639Z,3.95
2017-01-10T02:47:12.512Z,3.95
2017-01-10T02:48:12.541Z,3.98
2017-01-10T02:49:12.514Z,3.95
2017-01-10T02:50:12.671Z,3.9
2017-01-10T02:51:12.412Z,3.95
2017-01-10T02:52:12.423Z,3.92
2017-01-10T02:53:12.551Z,3.92
2017-01-10T02:54:12.543Z,3.99
2017-01-10T02:55:12.519Z,3.96
2017-01-10T02:56:12.711Z,3.95
2017-01-10T02:57:12.749Z,4
2017-01-10T02:58:12.470Z,3.96
2017-01-10T02:59:12.635Z,3.92
2017-01-10T03:00:13.024Z,3.89
2017-01-10T03:01:12.405Z,3.9
2017-01-10T03:02:12.606Z,3.93
2017-01-10T03:03:12.733Z,3.9
2017-01-10T03:04:12.726Z,3.9
2017-01-10T03:05:12.762Z,3.9
2017-01-10T03:06:12.632Z,3.88
2017-01-10T03:07:13.623Z,3.93
2017-01-10T03:08:12.581Z,3.88
2017-01-10T03:09:12.740Z,3.88
2017-01-10T03:10:12.867Z,3.88
2017-01-10T03:11:12.692Z,3.88
2017-01-10T03:12:12.570Z,3.84
2017-01-10T03:13:12.703Z,3.92
2017-01-10T03:14:12.816Z,3.95
2017-01-10T03:15:12.812Z,3.98
2017-01-10T03:16:12.602Z,3.81
2017-01-10T03:17:12.768Z,3.86
2017-01-10T03:18:12.531Z,3.9
2017-01-10T03:19:12.602Z,3.82
2017-01-10T03:20:13.528Z,3.81
2017-01-10T03:21:12.758Z,3.84
2017-01-10T03:22:12.857Z,3.78
2017-01-10T03:23:12.747Z,3.86
2017-01-10T03:24:12.695Z,3.81
2017-01-10T03:25:12.677Z,3.8
2017-01-10T03:26:12.674Z,3.71
2017-01-10T03:27:12.502Z,3.71
2017-01-10T03:28:12.515Z,3.68
2017-01-10T03:29:12.613Z,3.74
2017-01-10T03:30:12.741Z,3.82
2017-01-10T03:31:12.691Z,3.71
2017-01-10T03:32:12.628Z,3.63
2017-01-10T03:34:12.879Z,3.72
2017-01-10T03:35:12.774Z,3.7
2017-01-10T03:36:12.964Z,3.74
2017-01-10T03:37:12.793Z,3.68
2017-01-10T03:38:12.762Z,3.68
2017-01-10T03:39:12.573Z,3.64
2017-01-10T03:40:12.280Z,3.64
2017-01-10T03:41:12.506Z,3.7
2017-01-10T03:42:12.614Z,3.67
2017-01-10T03:43:12.433Z,3.57
2017-01-10T03:44:12.638Z,3.67
2017-01-10T03:45:12.751Z,3.63
2017-01-10T03:46:12.864Z,3.63
2017-01-10T03:47:13.392Z,3.53
2017-01-10T03:48:12.448Z,3.54
2017-01-10T03:49:12.375Z,3.6
2017-01-10T03:50:13.045Z,3.6
2017-01-10T03:51:13.015Z,3.53
2017-01-10T03:52:12.784Z,3.56
2017-01-10T03:53:12.554Z,3.68
2017-01-10T03:54:12.542Z,3.63
2017-01-10T03:55:12.497Z,3.54
2017-01-10T03:56:12.388Z,3.52
2017-01-10T03:57:12.331Z,3.62
2017-01-10T03:58:12.671Z,3.59
2017-01-10T03:59:12.630Z,3.64
2017-01-10T04:00:12.938Z,3.62
2017-01-10T04:02:12.570Z,3.46
2017-01-10T04:03:12.506Z,3.5
2017-01-10T04:04:12.755Z,3.53
2017-01-10T04:05:12.567Z,3.52
2017-01-10T04:06:12.791Z,3.54
2017-01-10T04:07:12.952Z,3.53
2017-01-10T04:08:12.953Z,3.57
2017-01-10T04:09:12.685Z,3.54
2017-01-10T04:10:13.121Z,3.57
2017-01-10T04:11:12.277Z,3.52
2017-01-10T04:12:12.335Z,3.46
2017-01-10T04:13:12.377Z,3.5
2017-01-10T04:14:12.464Z,3.53
2017-01-10T04:15:13.386Z,3.54
2017-01-10T04:16:12.515Z,3.56
2017-01-10T04:17:12.412Z,3.56
2017-01-10T04:18:12.485Z,3.56
2017-01-10T04:19:12.345Z,3.54
2017-01-10T04:20:12.550Z,3.57
2017-01-10T04:21:12.619Z,3.56
2017-01-10T04:22:12.838Z,3.57
2017-01-10T04:23:12.684Z,3.53
2017-01-10T04:24:12.534Z,3.57
2017-01-10T04:25:12.516Z,3.57
2017-01-10T04:26:12.339Z,3.56
2017-01-10T04:27:12.665Z,3.53
2017-01-10T04:28:12.701Z,3.56
2017-01-10T04:29:12.460Z,3.52
2017-01-10T04:30:12.556Z,3.56
2017-01-10T04:31:12.499Z,3.5
2017-01-10T04:32:12.514Z,3.56
2017-01-10T04:33:12.395Z,3.53
2017-01-10T04:34:12.686Z,3.52
2017-01-10T04:35:12.704Z,3.5
2017-01-10T04:36:12.638Z,3.49
2017-01-10T04:37:12.539Z,3.53
2017-01-10T04:38:12.806Z,3.54
2017-01-10T04:39:12.485Z,3.57
2017-01-10T04:40:12.490Z,3.5
2017-01-10T04:41:12.387Z,3.52
2017-01-10T04:42:12.611Z,3.57
2017-01-10T04:43:12.411Z,3.53
2017-01-10T04:44:12.905Z,3.53
2017-01-10T04:45:12.902Z,3.54
2017-01-10T04:46:12.594Z,3.5
2017-01-10T04:47:12.619Z,3.53
2017-01-10T04:48:12.717Z,3.57
2017-01-10T04:49:13.079Z,3.54
2017-01-10T04:50:12.819Z,3.56
2017-01-10T04:51:12.897Z,3.5
2017-01-10T04:52:12.741Z,3.5
2017-01-10T04:53:12.611Z,3.53
2017-01-10T04:54:12.828Z,3.53
2017-01-10T04:55:12.577Z,3.46
2017-01-10T04:56:12.584Z,3.53
2017-01-10T04:57:13.033Z,3.54
2017-01-10T04:58:12.744Z,3.54
2017-01-10T04:59:12.622Z,3.54
2017-01-10T05:00:12.945Z,3.49
2017-01-10T05:01:12.830Z,3.57
2017-01-10T05:02:12.841Z,3.53
2017-01-10T05:03:12.832Z,3.52
2017-01-10T05:04:12.561Z,3.46
2017-01-10T05:05:13.066Z,3.5
2017-01-10T05:06:12.686Z,3.49
2017-01-10T05:07:12.673Z,3.53
2017-01-10T05:08:12.778Z,3.5
2017-01-10T05:09:13.501Z,3.52
2017-01-10T05:10:12.738Z,3.57
2017-01-10T05:11:12.924Z,3.49
2017-01-10T05:12:12.534Z,3.5
2017-01-10T05:13:12.537Z,3.5
2017-01-10T05:14:13.171Z,3.46
2017-01-10T05:15:12.983Z,3.53
2017-01-10T05:16:12.927Z,3.5
2017-01-10T05:17:12.723Z,3.54
2017-01-10T05:18:12.905Z,3.56
2017-01-10T05:19:12.685Z,3.54
2017-01-10T05:20:12.634Z,3.54
2017-01-10T05:21:12.854Z,3.62
2017-01-10T05:22:12.724Z,3.5
2017-01-10T05:23:12.649Z,3.56
2017-01-10T05:24:12.858Z,3.62
2017-01-10T05:25:12.674Z,3.54
2017-01-10T05:26:12.748Z,3.46
2017-01-10T05:27:12.763Z,3.57
2017-01-10T05:28:12.754Z,3.57
2017-01-10T05:29:12.876Z,3.6
2017-01-10T05:30:13.040Z,3.54
2017-01-10T05:31:13.243Z,3.68
2017-01-10T05:32:12.869Z,3.54
2017-01-10T05:33:13.017Z,3.6
2017-01-10T05:34:12.880Z,3.57
2017-01-10T05:35:13.055Z,3.56
2017-01-10T05:36:12.976Z,3.63
2017-01-10T05:37:12.897Z,3.6
2017-01-10T05:38:12.991Z,3.59
2017-01-10T05:39:13.171Z,3.68
2017-01-10T05:40:12.986Z,3.57
2017-01-10T05:41:12.934Z,3.62
2017-01-10T05:42:12.662Z,3.53
2017-01-10T05:43:12.611Z,3.67
2017-01-10T05:44:13.419Z,3.67
2017-01-10T05:45:12.860Z,3.64
2017-01-10T05:46:12.731Z,3.64
2017-01-10T05:47:13.065Z,3.68
2017-01-10T05:48:12.817Z,3.78
2017-01-10T05:49:13.011Z,3.63
2017-01-10T05:50:12.896Z,3.72
2017-01-10T05:51:12.767Z,3.63
2017-01-10T05:52:13.045Z,3.7
2017-01-10T05:53:12.857Z,3.64
2017-01-10T05:54:13.100Z,3.67
2017-01-10T05:55:13.109Z,3.74
2017-01-10T05:56:12.877Z,3.75
2017-01-10T05:57:13.064Z,3.62
2017-01-10T05:58:12.998Z,3.7
2017-01-10T05:59:12.723Z,3.78
2017-01-10T06:00:12.732Z,3.77
2017-01-10T06:01:12.937Z,3.74
2017-01-10T06:02:13.054Z,3.64
2017-01-10T06:03:12.867Z,3.71
2017-01-10T06:04:12.733Z,3.71
2017-01-10T06:05:12.842Z,3.7
2017-01-10T06:06:12.818Z,3.78
2017-01-10T06:07:13.045Z,3.8
2017-01-10T06:08:12.949Z,3.71
2017-01-10T06:09:12.976Z,3.77
2017-01-10T06:10:14.438Z,3.75
2017-01-10T06:11:14.904Z,3.78
2017-01-10T06:12:15.577Z,3.7
2017-01-10T06:13:13.422Z,3.72
2017-01-10T06:14:15.278Z,3.8
2017-01-10T06:15:12.943Z,3.74
2017-01-10T06:16:13.308Z,3.77
2017-01-10T06:17:14.032Z,3.81
2017-01-10T06:18:12.899Z,3.72
2017-01-10T06:19:13.566Z,3.84
2017-01-10T06:20:13.515Z,3.78
2017-01-10T06:21:13.402Z,3.84
2017-01-10T06:22:12.682Z,3.8
2017-01-10T06:23:13.421Z,3.81
2017-01-10T06:24:12.932Z,3.77
2017-01-10T06:25:13.233Z,3.78
2017-01-10T06:26:12.594Z,3.81
2017-01-10T06:27:12.728Z,3.8
2017-01-10T06:28:12.788Z,3.92
2017-01-10T06:29:12.910Z,3.78
2017-01-10T06:30:12.619Z,3.81
2017-01-10T06:31:12.637Z,3.77
2017-01-10T06:32:12.788Z,3.93
2017-01-10T06:33:12.594Z,3.93
2017-01-10T06:34:12.645Z,3.8
2017-01-10T06:35:12.808Z,3.9
2017-01-10T06:36:12.754Z,3.86
2017-01-10T06:37:12.681Z,3.92
2017-01-10T06:38:12.924Z,3.9
2017-01-10T06:39:12.731Z,3.89
2017-01-10T06:40:12.968Z,3.82
2017-01-10T06:41:12.733Z,3.89
2017-01-10T06:42:12.837Z,3.92
2017-01-10T06:43:12.901Z,3.98
2017-01-10T06:44:12.845Z,3.9
2017-01-10T06:45:13.092Z,3.95
2017-01-10T06:46:12.774Z,3.9
2017-01-10T06:47:13.019Z,3.96
2017-01-10T06:48:13.121Z,3.9
2017-01-10T06:49:12.875Z,4
2017-01-10T06:50:12.952Z,4
2017-01-10T06:51:12.854Z,3.96
2017-01-10T06:52:12.735Z,3.92
2017-01-10T06:53:12.480Z,4
2017-01-10T06:54:12.898Z,3.95
2017-01-10T06:55:12.824Z,3.93
2017-01-10T06:56:12.490Z,3.92
2017-01-10T06:57:12.051Z,3.96
2017-01-10T06:58:13.309Z,3.95
2017-01-10T06:59:11.952Z,3.96
2017-01-10T07:00:11.935Z,3.96
2017-01-10T07:01:12.080Z,3.96
2017-01-10T07:02:11.898Z,3.96
2017-01-10T07:03:12.000Z,4.07
2017-01-10T07:04:11.897Z,4.02
2017-01-10T07:05:11.989Z,4.06
2017-01-10T07:06:11.909Z,4.04
2017-01-10T07:07:11.938Z,4.1
2017-01-10T07:08:11.987Z,4.13
2017-01-10T07:09:12.098Z,4.02
2017-01-10T07:10:11.983Z,4.1
2017-01-10T07:11:11.971Z,4.17
2017-01-10T07:12:12.018Z,4.2
2017-01-10T07:13:11.917Z,4.11
2017-01-10T07:14:12.032Z,4.14
2017-01-10T07:15:12.040Z,4.1
2017-01-10T07:16:11.941Z,4.08
2017-01-10T07:17:12.030Z,4.11
2017-01-10T07:18:11.921Z,4.16
2017-01-10T07:19:11.930Z,4.13
2017-01-10T07:20:11.954Z,4.11
2017-01-10T07:21:12.041Z,4.1
2017-01-10T07:22:12.228Z,4.1
2017-01-10T07:23:11.987Z,4.07
2017-01-10T07:24:11.937Z,4.17
2017-01-10T07:25:12.056Z,4.25
2017-01-10T07:26:12.095Z,4.2
2017-01-10T07:27:12.058Z,4.13
2017-01-10T07:28:11.906Z,4.17
2017-01-10T07:29:11.920Z,4.21
2017-01-10T07:30:11.884Z,4.28
2017-01-10T07:31:12.037Z,4.25
2017-01-10T07:32:11.941Z,4.25
2017-01-10T07:33:11.965Z,4.29
2017-01-10T07:34:12.013Z,4.25
2017-01-10T07:35:11.982Z,4.31
2017-01-10T07:36:11.947Z,4.25
2017-01-10T07:37:12.072Z,4.24
2017-01-10T07:38:11.915Z,4.18
2017-01-10T07:39:12.007Z,4.25
2017-01-10T07:40:12.014Z,4.26
2017-01-10T07:41:11.946Z,4.25
2017-01-10T07:42:11.917Z,4.24
2017-01-10T07:43:12.006Z,4.24
2017-01-10T07:44:12.011Z,4.21
2017-01-10T07:45:12.056Z,4.16
2017-01-10T07:46:11.968Z,4.14
2017-01-10T07:47:12.145Z,4.24
2017-01-10T07:48:12.014Z,4.21
2017-01-10T07:49:12.055Z,4.07
2017-01-10T07:50:12.705Z,4.14
2017-01-10T07:51:12.064Z,4.07
2017-01-10T07:52:11.919Z,4.26
2017-01-10T07:53:12.114Z,4.17
2017-01-10T07:54:11.972Z,4.17
2017-01-10T07:55:12.055Z,4.17
2017-01-10T07:56:12.044Z,4.16
2017-01-10T07:57:12.063Z,4.26
2017-01-10T07:58:12.204Z,4.25
2017-01-10T07:59:12.134Z,4.2
2017-01-10T08:00:12.005Z,4.21
2017-01-10T08:01:11.994Z,4.26
2017-01-10T08:02:11.955Z,4.25
2017-01-10T08:03:12.025Z,4.26
2017-01-10T08:04:11.965Z,4.25
2017-01-10T08:05:11.999Z,4.32
2017-01-10T08:06:11.978Z,4.21
2017-01-10T08:07:12.067Z,4.24
2017-01-10T08:08:12.095Z,4.17
2017-01-10T08:09:12.024Z,4.17
2017-01-10T08:10:12.005Z,4.28
2017-01-10T08:11:12.133Z,4.28
2017-01-10T08:12:11.964Z,4.24
2017-01-10T08:13:12.097Z,4.25
2017-01-10T08:14:11.983Z,4.24
2017-01-10T08:15:12.008Z,4.25
2017-01-10T08:16:12.072Z,4.25
2017-01-10T08:17:12.033Z,4.17
2017-01-10T08:18:11.973Z,4.2
2017-01-10T08:19:11.994Z,4.16
2017-01-10T08:20:12.013Z,4.13
2017-01-10T08:21:12.042Z,4.17
2017-01-10T08:22:12.049Z,4.14
2017-01-10T08:23:12.145Z,4.08
2017-01-10T08:24:12.032Z,4.08
2017-01-10T08:25:12.156Z,4.04
2017-01-10T08:26:12.031Z,4.13
2017-01-10T08:27:12.014Z,4.1
2017-01-10T08:28:12.032Z,4.18
2017-01-10T08:29:12.059Z,4.1
2017-01-10T08:30:12.012Z,4.17
2017-01-10T08:31:12.113Z,4.25
2017-01-10T08:32:12.052Z,4.31
2017-01-10T08:33:12.150Z,4.17
2017-01-10T08:34:11.983Z,4.21
2017-01-10T08:35:12.056Z,4.17
2017-01-10T08:36:12.211Z,4.24
2017-01-10T08:37:12.051Z,4.25
2017-01-10T08:38:12.048Z,4.21
2017-01-10T08:39:12.030Z,4.32
2017-01-10T08:40:12.051Z,4.36
2017-01-10T08:41:12.074Z,4.31
2017-01-10T08:42:12.015Z,4.35
2017-01-10T08:43:12.077Z,4.32
2017-01-10T08:44:12.018Z,4.38
2017-01-10T08:45:12.210Z,4.47
2017-01-10T08:46:12.056Z,4.35
2017-01-10T08:47:12.078Z,4.39
2017-01-10T08:48:12.094Z,4.46
2017-01-10T08:49:12.102Z,4.51
2017-01-10T08:50:12.206Z,4.39
2017-01-10T08:51:12.024Z,4.47
2017-01-10T08:52:12.068Z,4.5
2017-01-10T08:53:12.276Z,4.62
2017-01-10T08:54:12.041Z,4.43
2017-01-10T08:55:12.104Z,4.39
2017-01-10T08:56:12.088Z,4.47
2017-01-10T08:57:12.325Z,4.5
2017-01-10T08:58:12.047Z,4.43
2017-01-10T08:59:12.209Z,4.5
2017-01-10T09:00:12.300Z,4.47
2017-01-10T09:01:12.120Z,4.46
2017-01-10T09:02:12.081Z,4.46
2017-01-10T09:03:12.154Z,4.44
2017-01-10T09:04:12.102Z,4.57
2017-01-10T09:05:12.212Z,4.51
2017-01-10T09:06:12.088Z,4.47
2017-01-10T09:07:12.095Z,4.44
2017-01-10T09:08:12.104Z,4.57
2017-01-10T09:09:13.287Z,4.49
2017-01-10T09:10:12.115Z,4.51
2017-01-10T09:11:12.169Z,4.57
2017-01-10T09:12:12.041Z,4.5
2017-01-10T09:13:12.123Z,4.49
2017-01-10T09:14:12.046Z,4.57
2017-01-10T09:15:12.288Z,4.57
2017-01-10T09:16:12.053Z,4.65
2017-01-10T09:17:12.189Z,4.69
2017-01-10T09:18:12.056Z,4.62
2017-01-10T09:19:12.179Z,4.62
2017-01-10T09:20:12.233Z,4.65
2017-01-10T09:21:12.726Z,4.71
2017-01-10T09:22:12.185Z,4.77
2017-01-10T09:23:12.155Z,4.9
2017-01-10T09:24:12.061Z,4.86
2017-01-10T09:25:12.233Z,4.74
2017-01-10T09:26:12.110Z,4.87
2017-01-10T09:27:12.216Z,4.93
2017-01-10T09:28:12.100Z,5.06
2017-01-10T09:29:12.250Z,5.08
2017-01-10T09:30:12.085Z,5.08
2017-01-10T09:31:12.164Z,5.05
2017-01-10T09:32:12.083Z,5.09
2017-01-10T09:33:12.076Z,5.04
2017-01-10T09:34:12.075Z,5.06
2017-01-10T09:35:12.202Z,5.23
2017-01-10T09:36:12.233Z,5.27
2017-01-10T09:37:12.156Z,5.27
2017-01-10T09:38:12.135Z,5.24
2017-01-10T09:39:12.261Z,5.32
2017-01-10T09:40:12.246Z,5.3
2017-01-10T09:41:12.212Z,5.41
2017-01-10T09:42:12.099Z,5.49
2017-01-10T09:43:12.274Z,5.7
2017-01-10T09:44:12.137Z,5.74
2017-01-10T09:45:12.114Z,6.01
2017-01-10T09:46:12.176Z,6.2
2017-01-10T09:47:12.176Z,6.24
2017-01-10T09:48:12.118Z,6.36
2017-01-10T09:49:12.336Z,6.39
2017-01-10T09:50:12.285Z,6.27
2017-01-10T09:51:12.221Z,6.38
2017-01-10T09:52:12.125Z,6.48
2017-01-10T09:53:12.242Z,6.64
2017-01-10T09:54:12.118Z,6.64
2017-01-10T09:55:12.343Z,6.55
2017-01-10T09:56:12.107Z,6.55
2017-01-10T09:57:12.264Z,6.46
2017-01-10T09:58:12.092Z,6.48
2017-01-10T09:59:12.213Z,6.65
2017-01-10T10:00:13.152Z,6.64
2017-01-10T10:01:12.199Z,6.76
2017-01-10T10:02:12.081Z,6.72
2017-01-10T10:03:12.091Z,6.61
2017-01-10T10:04:12.137Z,6.71
2017-01-10T10:05:12.313Z,6.63
2017-01-10T10:06:12.169Z,6.53
2017-01-10T10:07:12.234Z,6.65
2017-01-10T10:08:12.231Z,6.6
2017-01-10T10:09:12.221Z,6.48
2017-01-10T10:10:12.150Z,6.48
2017-01-10T10:11:12.935Z,6.58
2017-01-10T10:12:12.139Z,6.53
2017-01-10T10:13:12.340Z,6.48
2017-01-10T10:14:14.338Z,6.5
2017-01-10T10:15:12.221Z,6.4
2017-01-10T10:16:12.204Z,6.51
2017-01-10T10:17:12.266Z,6.51
2017-01-10T10:18:12.179Z,6.48
2017-01-10T10:19:12.294Z,6.61
2017-01-10T10:20:12.299Z,6.86
2017-01-10T10:21:12.339Z,7.08
2017-01-10T10:22:12.171Z,6.86
2017-01-10T10:23:12.334Z,6.79
2017-01-10T10:24:12.271Z,6.78
2017-01-10T10:25:12.421Z,6.97
2017-01-10T10:26:12.296Z,7.32
2017-01-10T10:27:12.313Z,7.48
2017-01-10T10:28:12.177Z,7.54
2017-01-10T10:29:12.294Z,7.57
2017-01-10T10:30:12.301Z,7.55
2017-01-10T10:31:12.381Z,7.86
2017-01-10T10:32:12.195Z,8.27
2017-01-10T10:33:12.437Z,8.55
2017-01-10T10:34:12.124Z,8.39
2017-01-10T10:35:12.174Z,8.39
2017-01-10T10:36:12.351Z,8.24
2017-01-10T10:37:12.290Z,8.22
2017-01-10T10:38:12.273Z,8.28
2017-01-10T10:39:12.274Z,8.1
2017-01-10T10:40:12.233Z,8.02
2017-01-10T10:41:12.323Z,7.96
2017-01-10T10:42:12.141Z,7.92
2017-01-10T10:43:13.321Z,7.86
2017-01-10T10:44:12.175Z,7.77
2017-01-10T10:45:12.222Z,7.66
2017-01-10T10:46:12.192Z,7.73
2017-01-10T10:47:12.781Z,7.7
2017-01-10T10:48:12.130Z,7.57
2017-01-10T10:49:12.259Z,7.57
2017-01-10T10:50:12.199Z,7.42
2017-01-10T10:51:12.240Z,7.32
2017-01-10T10:52:12.387Z,7.34
2017-01-10T10:53:12.177Z,7.21
2017-01-10T10:54:12.306Z,7.18
2017-01-10T10:55:12.207Z,7.21
2017-01-10T10:56:12.419Z,7.19
2017-01-10T10:57:12.276Z,7.11
2017-01-10T10:58:12.153Z,7.12
2017-01-10T10:59:12.291Z,7.09
2017-01-10T11:00:12.433Z,6.89
2017-01-10T11:01:12.292Z,6.96
2017-01-10T11:02:12.325Z,7.04
2017-01-10T11:03:12.295Z,6.9
2017-01-10T11:04:12.367Z,6.83
2017-01-10T11:05:12.256Z,6.81
2017-01-10T11:06:12.277Z,6.75
2017-01-10T11:07:12.367Z,6.75
2017-01-10T11:08:12.314Z,6.79
2017-01-10T11:09:12.308Z,6.71
2017-01-10T11:10:12.246Z,6.71
2017-01-10T11:11:12.351Z,6.64
2017-01-10T11:12:12.353Z,6.61
2017-01-10T11:13:12.434Z,6.72
2017-01-10T11:14:12.271Z,6.73
2017-01-10T11:15:12.234Z,6.61
2017-01-10T11:16:12.390Z,6.61
2017-01-10T11:17:12.347Z,6.65
2017-01-10T11:18:12.179Z,6.71
2017-01-10T11:19:12.239Z,6.54
2017-01-10T11:20:12.247Z,6.58
2017-01-10T11:21:12.329Z,6.54
2017-01-10T11:22:12.372Z,6.5
2017-01-10T11:23:12.279Z,6.61
2017-01-10T11:24:12.227Z,6.48
2017-01-10T11:25:12.312Z,6.53
2017-01-10T11:26:12.311Z,6.45
2017-01-10T11:27:12.283Z,6.54
2017-01-10T11:28:12.929Z,6.48
2017-01-10T11:29:12.421Z,6.51
2017-01-10T11:30:12.457Z,6.5
2017-01-10T11:31:12.598Z,6.51
2017-01-10T11:32:12.320Z,6.51
2017-01-10T11:33:12.413Z,6.5
2017-01-10T11:34:12.351Z,6.54
2017-01-10T11:35:12.252Z,6.45
2017-01-10T11:36:12.372Z,6.57
2017-01-10T11:37:12.305Z,6.46
2017-01-10T11:38:12.287Z,6.48
2017-01-10T11:39:12.338Z,6.48
2017-01-10T11:40:12.281Z,6.45
2017-01-10T11:41:12.400Z,6.43
2017-01-10T11:42:12.296Z,6.4
2017-01-10T11:43:12.419Z,6.43
2017-01-10T11:44:12.368Z,6.45
2017-01-10T11:45:12.392Z,6.53
2017-01-10T11:46:12.958Z,6.6
2017-01-10T11:47:12.295Z,6.43
2017-01-10T11:48:12.293Z,6.54
2017-01-10T11:49:12.376Z,6.54
2017-01-10T11:50:12.376Z,6.51
2017-01-10T11:51:12.500Z,6.5
2017-01-10T11:52:12.539Z,6.48
2017-01-10T11:53:12.397Z,6.46
2017-01-10T11:54:12.348Z,6.4
2017-01-10T11:55:12.481Z,6.39
2017-01-10T11:56:12.313Z,6.5
2017-01-10T11:57:12.370Z,6.46
2017-01-10T11:58:12.251Z,6.51
2017-01-10T11:59:12.310Z,6.5
2017-01-10T12:00:12.345Z,6.48
2017-01-10T12:01:12.320Z,6.45
2017-01-10T12:02:12.296Z,6.53
2017-01-10T12:03:12.299Z,6.46
2017-01-10T12:04:12.331Z,6.46
2017-01-10T12:05:12.427Z,6.5
2017-01-10T12:06:12.290Z,6.48
2017-01-10T12:07:12.339Z,6.4
2017-01-10T12:08:12.462Z,6.43
2017-01-10T12:09:12.363Z,6.35
2017-01-10T12:10:12.316Z,6.36
2017-01-10T12:11:12.285Z,6.32
2017-01-10T12:12:12.260Z,6.42
2017-01-10T12:13:13.667Z,6.25
2017-01-10T12:14:12.296Z,6.2
2017-01-10T12:15:12.322Z,6.19
2017-01-10T12:16:12.354Z,6.16
2017-01-10T12:17:12.387Z,6.16
2017-01-10T12:18:12.269Z,6.06
2017-01-10T12:19:13.288Z,6.06
2017-01-10T12:20:12.390Z,6.08
2017-01-10T12:21:12.471Z,6.05
2017-01-10T12:22:12.314Z,6.11
2017-01-10T12:23:12.397Z,6.16
2017-01-10T12:24:12.429Z,6.05
2017-01-10T12:25:12.414Z,6.05
2017-01-10T12:26:12.336Z,6.05
2017-01-10T12:27:12.410Z,5.98
2017-01-10T12:28:12.301Z,5.99
2017-01-10T12:29:12.298Z,5.96
2017-01-10T12:30:12.276Z,5.98
2017-01-10T12:31:12.416Z,5.95
2017-01-10T12:32:12.302Z,5.9
2017-01-10T12:33:12.406Z,5.93
2017-01-10T12:34:12.430Z,6.01
2017-01-10T12:35:12.419Z,5.95
2017-01-10T12:36:13.187Z,5.98
2017-01-10T12:37:12.507Z,6.05
2017-01-10T12:38:12.327Z,5.81
2017-01-10T12:39:12.431Z,5.99
2017-01-10T12:40:12.407Z,5.9
2017-01-10T12:41:12.975Z,5.9
2017-01-10T12:42:12.406Z,5.88
2017-01-10T12:43:12.409Z,5.85
2017-01-10T12:44:12.454Z,5.84
2017-01-10T12:45:12.366Z,5.84
2017-01-10T12:46:12.345Z,5.85
2017-01-10T12:47:12.410Z,5.83
2017-01-10T12:48:12.367Z,5.85
2017-01-10T12:49:12.362Z,5.88
2017-01-10T12:50:12.913Z,5.88
2017-01-10T12:51:12.378Z,5.92
2017-01-10T12:52:12.381Z,5.87
2017-01-10T12:53:12.498Z,5.83
2017-01-10T12:54:13.184Z,5.9
2017-01-10T12:55:12.551Z,5.88
2017-01-10T12:56:12.389Z,5.77
2017-01-10T12:57:12.507Z,5.8
2017-01-10T12:58:12.397Z,5.8
2017-01-10T12:59:12.488Z,5.84
2017-01-10T13:00:12.445Z,5.88
2017-01-10T13:01:12.502Z,5.88
2017-01-10T13:02:12.515Z,5.87
2017-01-10T13:03:12.456Z,5.85
2017-01-10T13:04:12.449Z,5.93
2017-01-10T13:05:12.400Z,5.8
2017-01-10T13:06:12.427Z,5.93
2017-01-10T13:07:12.367Z,5.8
2017-01-10T13:08:12.535Z,5.85
2017-01-10T13:09:12.547Z,5.83
2017-01-10T13:10:12.436Z,5.87
2017-01-10T13:11:12.368Z,5.93
2017-01-10T13:12:12.430Z,5.87
2017-01-10T13:13:12.453Z,5.84
2017-01-10T13:14:12.417Z,5.81
2017-01-10T13:15:12.428Z,5.96
2017-01-10T13:16:12.497Z,6.01
2017-01-10T13:17:12.396Z,6.03
2017-01-10T13:18:12.419Z,6.06
2017-01-10T13:19:12.405Z,5.99
2017-01-10T13:20:12.378Z,6.1
2017-01-10T13:21:12.417Z,6.03
2017-01-10T13:22:12.432Z,6.1
2017-01-10T13:23:12.532Z,6.13
2017-01-10T13:24:12.546Z,6.14
2017-01-10T13:25:12.407Z,6.13